Time;durP1;ratioP1;P1;durP2;ratioP2;P2;SDS_P1;SDS_P2;PMS_P1;PMS_P2;Temp;Humidity;BMP_temperature;BMP_pressure;BME280_temperature;BME280_humidity;BME280_pressure;Samples;Min_cycle;Max_cycle;Signal;HPM_P1;HPM_P2
2023/08/18 00:02:04;;;;;;;4.50;3.43;;;;;;;21.41;100.00;98117.00;5056507;28;20209;-75
2023/08/18 00:04:31;;;;;;;4.33;2.97;;;;;;;21.46;100.00;98116.94;5056441;28;20330;-76
2023/08/18 00:06:57;;;;;;;3.43;3.03;;;;;;;21.39;100.00;98111.88;5056076;28;20617;-75
2023/08/18 00:09:24;;;;;;;3.70;3.30;;;;;;;21.36;100.00;98112.47;5055831;28;20604;-76
2023/08/18 00:11:51;;;;;;;5.47;3.60;;;;;;;21.32;100.00;98110.59;5056416;28;20208;-75
2023/08/18 00:14:17;;;;;;;7.87;3.67;;;;;;;21.30;100.00;98113.59;5056075;28;20566;-75
2023/08/18 00:16:43;;;;;;;5.27;3.50;;;;;;;21.34;100.00;98113.84;5056191;28;20692;-75
2023/08/18 00:19:10;;;;;;;6.23;3.37;;;;;;;21.30;100.00;98110.09;5056170;28;20317;-75
2023/08/18 00:21:36;;;;;;;5.63;3.17;;;;;;;21.29;100.00;98113.91;5056183;28;20241;-75
2023/08/18 00:24:03;;;;;;;4.00;3.60;;;;;;;21.18;100.00;98104.25;5055062;28;20205;-75
2023/08/18 00:26:29;;;;;;;6.17;3.47;;;;;;;21.13;100.00;98101.59;5056054;28;20201;-76
2023/08/18 00:28:55;;;;;;;4.40;3.40;;;;;;;21.07;100.00;98106.25;5055824;28;20230;-75
2023/08/18 00:31:22;;;;;;;4.00;3.60;;;;;;;21.02;100.00;98095.47;5055930;28;20205;-75
2023/08/18 00:33:48;;;;;;;5.33;3.50;;;;;;;20.92;100.00;98097.47;5055814;28;20201;-75
2023/08/18 00:36:14;;;;;;;4.83;2.90;;;;;;;20.85;100.00;98105.06;5055554;28;20210;-75
2023/08/18 00:38:41;;;;;;;4.40;3.57;;;;;;;20.75;100.00;98097.84;5055645;28;20225;-75
2023/08/18 00:41:07;;;;;;;4.50;3.17;;;;;;;20.72;100.00;98103.00;5055523;28;20633;-76
2023/08/18 00:43:34;;;;;;;5.97;3.43;;;;;;;20.71;100.00;98102.19;5055754;28;20201;-75
2023/08/18 00:46:00;;;;;;;7.60;3.70;;;;;;;20.60;100.00;98092.56;5055651;28;20205;-75
2023/08/18 00:48:27;;;;;;;6.07;3.23;;;;;;;20.68;100.00;98094.69;5055498;28;20205;-75
2023/08/18 00:50:54;;;;;;;4.67;3.30;;;;;;;20.59;100.00;98096.38;5055286;28;20568;-75
2023/08/18 00:53:21;;;;;;;3.43;3.13;;;;;;;20.55;100.00;98094.50;5055564;28;20212;-76
2023/08/18 00:55:49;;;;;;;5.17;3.50;;;;;;;20.47;100.00;98093.19;5055570;28;20212;-76
2023/08/18 00:58:15;;;;;;;5.43;3.67;;;;;;;20.40;100.00;98091.91;5056204;28;20211;-76
2023/08/18 01:00:42;;;;;;;3.57;3.27;;;;;;;20.40;100.00;98083.81;5055368;28;20198;-75
2023/08/18 01:03:09;;;;;;;5.23;3.80;;;;;;;20.47;100.00;98087.81;5055086;28;20668;-75
2023/08/18 01:05:35;;;;;;;5.60;3.80;;;;;;;20.50;100.00;98091.84;5037638;28;20209;-75
2023/08/18 01:08:02;;;;;;;7.13;3.93;;;;;;;20.54;100.00;98090.19;5055327;28;20205;-75
2023/08/18 01:10:31;;;;;;;5.23;4.13;;;;;;;20.58;100.00;98083.13;5054740;28;20719;-75
2023/08/18 01:13:19;;;;;;;6.73;3.90;;;;;;;20.51;100.00;98083.47;5054667;28;20241;-75
2023/08/18 01:15:47;;;;;;;4.13;3.50;;;;;;;20.39;100.00;98084.91;5055360;28;20193;-75
2023/08/18 01:18:14;;;;;;;5.20;3.60;;;;;;;20.37;100.00;98074.38;5054624;28;20690;-75
2023/08/18 01:20:41;;;;;;;4.80;4.17;;;;;;;20.34;100.00;98080.34;5055035;28;20203;-76
2023/08/18 01:23:09;;;;;;;8.07;4.10;;;;;;;20.29;100.00;98079.56;5054978;28;20212;-75
2023/08/18 01:25:35;;;;;;;4.73;3.63;;;;;;;20.29;100.00;98084.94;5054600;28;20588;-75
2023/08/18 01:28:03;;;;;;;7.10;3.90;;;;;;;20.22;100.00;98089.88;5054627;28;20212;-75
2023/08/18 01:30:40;;;;;;;5.27;4.20;;;;;;;20.15;100.00;98083.97;5054366;28;20689;-75
2023/08/18 01:33:25;;;;;;;4.97;4.03;;;;;;;20.16;100.00;98089.09;5054525;28;20644;-75
2023/08/18 01:35:55;;;;;;;5.50;4.27;;;;;;;20.09;100.00;98083.22;5054764;28;20200;-76
2023/08/18 01:38:25;;;;;;;5.07;4.37;;;;;;;20.07;100.00;98079.16;5054568;28;20205;-75
2023/08/18 01:40:53;;;;;;;5.70;4.00;;;;;;;20.03;100.00;98072.69;5054213;28;20220;-75
2023/08/18 01:43:20;;;;;;;6.33;4.10;;;;;;;19.93;100.00;98075.44;5054594;28;20205;-75
2023/08/18 01:45:47;;;;;;;6.57;4.23;;;;;;;19.88;100.00;98078.13;5054454;28;20201;-75
2023/08/18 01:48:13;;;;;;;7.23;4.53;;;;;;;19.85;100.00;98084.09;5054502;28;20205;-75
2023/08/18 01:50:39;;;;;;;5.83;4.33;;;;;;;19.86;100.00;98083.84;5054327;28;20225;-75
2023/08/18 01:53:06;;;;;;;5.00;4.17;;;;;;;19.78;100.00;98085.19;5054367;28;20204;-75
2023/08/18 01:55:32;;;;;;;8.37;4.50;;;;;;;19.75;100.00;98081.47;5054270;28;20205;-75
2023/08/18 01:57:58;;;;;;;5.70;4.30;;;;;;;19.77;100.00;98083.59;5054368;28;20211;-75
2023/08/18 02:00:25;;;;;;;7.00;4.80;;;;;;;19.80;100.00;98084.13;5054152;28;20229;-75
2023/08/18 02:02:51;;;;;;;6.57;4.53;;;;;;;19.68;100.00;98079.84;5054172;28;20201;-75
2023/08/18 02:05:17;;;;;;;4.70;4.30;;;;;;;19.76;100.00;98088.47;5054097;28;20201;-75
2023/08/18 02:07:44;;;;;;;5.57;4.53;;;;;;;19.73;100.00;98081.75;5053785;28;20688;-75
2023/08/18 02:10:10;;;;;;;7.07;4.33;;;;;;;19.57;100.00;98084.78;5053967;28;20225;-75
2023/08/18 02:12:36;;;;;;;5.17;4.50;;;;;;;19.61;100.00;98081.22;5053971;28;20205;-75
2023/08/18 02:15:03;;;;;;;5.77;4.33;;;;;;;19.60;100.00;98074.25;5054257;28;20212;-75
2023/08/18 02:17:29;;;;;;;5.13;4.63;;;;;;;19.48;100.00;98058.38;5053955;28;20209;-75
2023/08/18 02:19:58;;;;;;;6.27;4.33;;;;;;;19.50;100.00;98071.59;5053815;28;20221;-76
2023/08/18 02:22:25;;;;;;;6.97;4.87;;;;;;;19.55;100.00;98058.06;5053857;28;20212;-75
2023/08/18 02:24:52;;;;;;;6.33;4.50;;;;;;;19.48;100.00;98064.84;5054111;28;20205;-75
2023/08/18 02:27:19;;;;;;;7.73;4.60;;;;;;;19.55;100.00;98063.47;5053863;28;20205;-75
2023/08/18 02:29:45;;;;;;;6.33;4.30;;;;;;;19.49;100.00;98061.84;5053317;28;20710;-75
2023/08/18 02:32:11;;;;;;;5.77;4.60;;;;;;;19.50;100.00;98074.28;5053708;28;20205;-75
2023/08/18 02:34:38;;;;;;;6.30;4.73;;;;;;;19.48;100.00;98070.25;5053710;28;20205;-75
2023/08/18 02:37:04;;;;;;;6.23;4.27;;;;;;;19.49;100.00;98056.47;5053695;28;20201;-75
2023/08/18 02:39:31;;;;;;;6.20;4.30;;;;;;;19.46;100.00;98071.31;5053197;28;20240;-75
2023/08/18 02:41:57;;;;;;;5.20;4.33;;;;;;;19.46;100.00;98074.00;5053627;28;20247;-75
2023/08/18 02:44:25;;;;;;;5.93;4.30;;;;;;;19.47;100.00;98064.03;5053356;28;20212;-75
2023/08/18 02:46:52;;;;;;;4.10;3.70;;;;;;;19.51;100.00;98065.09;5051525;28;20579;-75
2023/08/18 02:49:19;;;;;;;5.57;3.50;;;;;;;19.51;100.00;98063.19;5052442;28;20229;-75
2023/08/18 02:51:45;;;;;;;3.57;3.23;;;;;;;19.48;100.00;98059.47;5053397;28;20295;-75
2023/08/18 02:54:12;;;;;;;5.83;3.87;;;;;;;19.49;100.00;98059.16;5053492;28;20236;-75
2023/08/18 02:56:38;;;;;;;4.80;3.67;;;;;;;19.43;100.00;98058.38;5053329;28;20296;-75
2023/08/18 02:59:04;;;;;;;7.30;3.87;;;;;;;19.43;100.00;98047.59;5053096;28;20231;-75
2023/08/18 03:01:31;;;;;;;4.10;3.70;;;;;;;19.40;100.00;98056.22;5053286;28;20209;-75
2023/08/18 03:03:57;;;;;;;3.93;3.53;;;;;;;19.39;100.00;98061.91;5052914;28;20555;-75
2023/08/18 03:06:24;;;;;;;4.23;3.40;;;;;;;19.32;100.00;98051.41;5053189;28;20262;-75
2023/08/18 03:08:50;;;;;;;4.90;3.53;;;;;;;19.25;100.00;98048.19;5053407;28;20224;-75
2023/08/18 03:11:17;;;;;;;7.77;4.13;;;;;;;19.22;100.00;98050.59;5053097;28;20224;-75
2023/08/18 03:13:43;;;;;;;9.10;3.50;;;;;;;19.26;100.00;98043.59;5053118;28;20216;-75
2023/08/18 03:16:09;;;;;;;4.83;3.47;;;;;;;19.21;100.00;98041.72;5053114;28;20216;-75
2023/08/18 03:18:36;;;;;;;5.30;3.43;;;;;;;19.09;100.00;98040.41;5053178;28;20221;-75
2023/08/18 03:21:04;;;;;;;6.80;3.87;;;;;;;19.11;100.00;98041.75;5053132;28;20209;-75
2023/08/18 03:23:30;;;;;;;4.83;3.40;;;;;;;19.03;100.00;98036.91;5053210;28;20205;-75
2023/08/18 03:26:04;;;;;;;4.03;3.40;;;;;;;19.06;100.00;98033.69;5053141;28;20205;-75
2023/08/18 03:28:37;;;;;;;4.73;3.40;;;;;;;18.97;100.00;98034.50;5053203;28;20350;-75
2023/08/18 03:31:05;;;;;;;5.50;3.40;;;;;;;18.98;100.00;98036.94;5052776;28;20221;-75
2023/08/18 03:33:32;;;;;;;4.70;3.37;;;;;;;19.02;100.00;98037.19;5053134;28;20206;-75
2023/08/18 03:35:59;;;;;;;4.07;3.40;;;;;;;18.91;100.00;98047.16;5052828;28;20293;-75
2023/08/18 03:38:26;;;;;;;5.77;3.40;;;;;;;18.87;100.00;98035.31;5052419;28;20573;-75
2023/08/18 03:41:19;;;;;;;4.20;3.70;;;;;;;18.80;100.00;98040.19;5052334;28;20209;-75
2023/08/18 03:43:45;;;;;;;5.37;3.47;;;;;;;18.78;100.00;98044.22;5049206;28;20251;-75
2023/08/18 03:46:22;;;;;;;8.27;3.93;;;;;;;18.79;100.00;98041.28;5052549;28;20235;-75
2023/08/18 03:48:50;;;;;;;5.73;3.40;;;;;;;18.78;100.00;98039.63;5052445;28;20235;-75
2023/08/18 03:51:16;;;;;;;5.17;3.60;;;;;;;18.81;100.00;98046.38;5052589;28;20221;-75
2023/08/18 03:53:43;;;;;;;5.53;3.67;;;;;;;18.74;100.00;98046.63;5052770;28;20211;-75
2023/08/18 03:56:10;;;;;;;3.57;3.20;;;;;;;18.72;100.00;98045.28;5052832;28;20240;-75
2023/08/18 03:58:36;;;;;;;5.57;3.30;;;;;;;18.69;100.00;98037.78;5054961;28;20225;-75
2023/08/18 04:01:08;;;;;;;5.37;3.30;;;;;;;18.75;100.00;98031.28;5055177;28;20190;-75
2023/08/18 04:03:42;;;;;;;4.30;3.70;;;;;;;18.68;100.00;98036.97;5055601;28;20185;-75
2023/08/18 04:06:09;;;;;;;4.20;3.80;;;;;;;18.69;100.00;98038.56;5056961;28;20203;-79
2023/08/18 04:08:41;;;;;;;5.30;3.83;;;;;;;18.73;100.00;98036.94;5054413;28;20224;-79
2023/08/18 04:11:07;;;;;;;6.90;3.67;;;;;;;18.70;100.00;98034.81;5057868;28;20218;-79
2023/08/18 04:13:34;;;;;;;5.30;3.90;;;;;;;18.68;100.00;98042.34;5058701;28;20208;-79
2023/08/18 04:16:00;;;;;;;4.60;3.47;;;;;;;18.62;100.00;98035.34;5058878;28;20209;-79
2023/08/18 04:18:27;;;;;;;4.37;3.60;;;;;;;18.59;100.00;98040.47;5057433;28;20657;-79
2023/08/18 04:20:54;;;;;;;6.00;3.97;;;;;;;18.56;100.00;98039.13;5043013;28;20237;-79
2023/08/18 04:23:20;;;;;;;6.53;3.90;;;;;;;18.59;100.00;98045.88;5039263;28;20298;-79
2023/08/18 04:25:47;;;;;;;10.03;4.43;;;;;;;18.56;100.00;98032.94;5058638;28;20206;-79
2023/08/18 04:28:13;;;;;;;5.70;4.37;;;;;;;18.60;100.00;98036.72;5058389;28;20239;-79
2023/08/18 04:30:39;;;;;;;10.30;3.90;;;;;;;18.58;100.00;98038.84;5057754;28;20231;-79
2023/08/18 04:33:06;;;;;;;5.30;4.33;;;;;;;18.55;100.00;98048.28;5058564;28;20205;-79
2023/08/18 04:35:32;;;;;;;5.77;3.80;;;;;;;18.53;100.00;98052.31;5057929;28;20205;-79
2023/08/18 04:37:59;;;;;;;5.53;3.80;;;;;;;18.53;100.00;98055.00;5057717;28;20220;-79
2023/08/18 04:40:25;;;;;;;5.17;4.20;;;;;;;18.51;100.00;98052.56;5056218;28;20277;-79
2023/08/18 04:42:52;;;;;;;6.37;4.00;;;;;;;18.52;100.00;98059.59;5057060;28;20205;-79
2023/08/18 04:45:18;;;;;;;7.93;4.47;;;;;;;18.53;100.00;98052.31;5055883;28;20194;-79
2023/08/18 04:47:44;;;;;;;7.93;4.93;;;;;;;18.52;100.00;98058.78;5040068;28;20210;-79
2023/08/18 04:50:11;;;;;;;7.70;4.80;;;;;;;18.56;100.00;98058.00;5037481;28;20236;-79
2023/08/18 04:52:37;;;;;;;7.07;5.00;;;;;;;18.61;100.00;98060.69;5038345;28;20217;-79
2023/08/18 04:55:04;;;;;;;7.77;5.00;;;;;;;18.62;100.00;98066.84;5037670;28;20259;-79
2023/08/18 04:57:30;;;;;;;6.23;4.80;;;;;;;18.64;100.00;98070.88;5038765;28;20216;-79
2023/08/18 04:59:57;;;;;;;7.90;4.67;;;;;;;18.69;100.00;98064.72;5038012;28;20222;-79
2023/08/18 05:02:25;;;;;;;8.73;5.60;;;;;;;18.65;100.00;98067.13;5038200;28;20208;-79
2023/08/18 05:04:51;;;;;;;8.23;4.53;;;;;;;18.69;100.00;98070.09;5037909;28;20256;-79
2023/08/18 05:07:18;;;;;;;5.43;4.53;;;;;;;18.78;100.00;98068.47;5037789;28;20568;-79
2023/08/18 05:09:44;;;;;;;6.63;4.90;;;;;;;18.84;100.00;98073.59;5037875;28;20755;-79
2023/08/18 05:12:10;;;;;;;7.53;5.10;;;;;;;18.93;100.00;98077.34;5037799;28;20661;-79
2023/08/18 05:14:37;;;;;;;5.87;5.27;;;;;;;18.97;100.00;98077.59;5037736;28;20673;-79
2023/08/18 05:17:03;;;;;;;6.73;5.03;;;;;;;19.06;100.00;98076.78;5038183;28;20208;-79
2023/08/18 05:19:29;;;;;;;9.80;5.63;;;;;;;19.14;100.00;98076.22;5038064;28;20236;-79
2023/08/18 05:21:56;;;;;;;7.90;5.40;;;;;;;19.21;100.00;98074.06;5037745;28;20202;-79
2023/08/18 05:24:22;;;;;;;7.47;5.40;;;;;;;19.28;100.00;98077.28;5038381;28;20230;-79
2023/08/18 05:26:48;;;;;;;6.70;5.60;;;;;;;19.36;100.00;98074.03;5037544;28;20693;-79
2023/08/18 05:29:16;;;;;;;8.70;5.70;;;;;;;19.42;100.00;98075.63;5037795;28;20221;-79
2023/08/18 05:31:45;;;;;;;7.93;5.63;;;;;;;19.49;100.00;98081.56;5037660;28;20308;-79
2023/08/18 05:34:11;;;;;;;8.83;5.67;;;;;;;19.57;100.00;98074.00;5037707;28;20229;-79
2023/08/18 05:36:38;;;;;;;9.60;5.43;;;;;;;19.59;100.00;98069.94;5038168;28;20229;-79
2023/08/18 05:39:04;;;;;;;7.83;5.27;;;;;;;19.64;100.00;98078.00;5034508;28;20320;-75
2023/08/18 05:41:31;;;;;;;7.37;5.40;;;;;;;19.72;100.00;98080.13;5034331;28;20209;-75
2023/08/18 05:43:57;;;;;;;7.60;5.30;;;;;;;19.76;100.00;98080.38;5034226;28;20208;-75
2023/08/18 05:46:23;;;;;;;11.53;5.57;;;;;;;19.81;100.00;98074.94;5034143;28;20683;-75
2023/08/18 05:48:50;;;;;;;6.40;4.77;;;;;;;19.87;100.00;98077.34;5034114;28;20236;-75
2023/08/18 05:51:16;;;;;;;7.17;4.93;;;;;;;19.93;100.00;98078.16;5034205;28;20225;-75
2023/08/18 05:53:42;;;;;;;10.27;4.83;;;;;;;20.05;100.00;98075.91;5034241;28;20209;-75
2023/08/18 05:56:09;;;;;;;6.87;4.20;;;;;;;20.11;100.00;98083.72;5033952;28;20220;-75
2023/08/18 05:58:35;;;;;;;7.23;5.07;;;;;;;20.08;100.00;98083.44;5033883;28;20221;-75
2023/08/18 06:01:03;;;;;;;6.47;4.57;;;;;;;20.12;100.00;98089.94;5033557;28;20614;-75
2023/08/18 06:03:30;;;;;;;6.50;4.37;;;;;;;20.15;100.00;98090.19;5033953;28;20202;-75
2023/08/18 06:06:00;;;;;;;5.17;4.60;;;;;;;20.21;100.00;98090.97;5034079;28;20256;-75
2023/08/18 06:08:26;;;;;;;7.20;4.70;;;;;;;20.27;100.00;98082.56;5034422;28;20259;-75
2023/08/18 06:10:53;;;;;;;7.10;4.60;;;;;;;20.36;100.00;98086.28;5033872;28;20236;-75
2023/08/18 06:13:20;;;;;;;6.20;4.30;;;;;;;20.39;100.00;98087.59;5033628;28;20206;-75
2023/08/18 06:15:46;;;;;;;6.60;4.73;;;;;;;20.45;100.00;98091.88;5033848;28;20209;-75
2023/08/18 06:18:12;;;;;;;5.00;4.37;;;;;;;20.47;100.00;98086.97;5033631;28;20210;-75
2023/08/18 06:20:39;;;;;;;6.13;3.90;;;;;;;20.68;100.00;98096.56;5033247;28;20208;-75
2023/08/18 06:23:06;;;;;;;6.97;3.90;;;;;;;20.64;100.00;98096.31;5032953;28;20210;-75
2023/08/18 06:25:32;;;;;;;6.10;4.20;;;;;;;20.76;100.00;98104.84;5033539;28;20209;-75
2023/08/18 06:27:58;;;;;;;6.70;3.83;;;;;;;20.78;100.00;98104.56;5032975;28;20216;-75
2023/08/18 06:30:25;;;;;;;6.27;4.20;;;;;;;20.75;100.00;98105.94;5033007;28;20226;-75
2023/08/18 06:32:51;;;;;;;8.33;3.60;;;;;;;20.73;100.00;98101.91;5033361;28;20561;-75
2023/08/18 06:35:17;;;;;;;4.60;3.40;;;;;;;20.77;100.00;98097.56;5033185;28;20237;-75
2023/08/18 06:37:44;;;;;;;6.03;3.70;;;;;;;20.83;100.00;98107.22;5033095;28;20533;-75
2023/08/18 06:40:11;;;;;;;7.63;4.10;;;;;;;20.96;100.00;98112.03;5033144;28;20234;-75
2023/08/18 06:42:37;;;;;;;9.73;5.00;;;;;;;20.98;100.00;98109.88;5033300;28;20206;-75
2023/08/18 06:45:04;;;;;;;7.03;4.90;;;;;;;21.11;100.00;98120.81;5033310;28;20553;-75
2023/08/18 06:47:31;;;;;;;5.70;4.70;;;;;;;21.05;100.00;98121.13;5033301;28;20240;-75
2023/08/18 06:49:57;;;;;;;5.03;3.83;;;;;;;21.15;100.00;98124.56;5033226;28;20237;-75
2023/08/18 06:52:23;;;;;;;7.73;4.33;;;;;;;21.27;100.00;98116.88;5033121;28;20215;-75
2023/08/18 06:54:50;;;;;;;7.40;5.20;;;;;;;21.31;100.00;98122.50;5033122;28;20216;-76
2023/08/18 06:57:16;;;;;;;6.17;4.20;;;;;;;21.59;100.00;98127.09;5032475;28;20209;-75
2023/08/18 06:59:43;;;;;;;5.50;4.40;;;;;;;21.41;100.00;98125.94;5031570;28;20261;-75
2023/08/18 07:02:09;;;;;;;5.53;4.00;;;;;;;21.45;100.00;98126.97;5031115;28;20693;-75
2023/08/18 07:04:36;;;;;;;5.10;3.70;;;;;;;21.62;100.00;98119.19;5031289;28;20581;-75
2023/08/18 07:07:03;;;;;;;7.10;3.50;;;;;;;21.56;100.00;98122.25;5030731;28;20677;-75
2023/08/18 07:09:29;;;;;;;4.90;3.73;;;;;;;21.53;100.00;98118.19;5031005;28;20576;-75
2023/08/18 07:11:56;;;;;;;8.57;3.90;;;;;;;21.53;100.00;98114.72;5030986;28;20218;-75
2023/08/18 07:14:22;;;;;;;5.50;3.93;;;;;;;21.75;100.00;98123.16;5031942;28;20332;-75
2023/08/18 07:16:49;;;;;;;6.63;4.07;;;;;;;21.90;100.00;98126.47;5033052;28;20212;-75
2023/08/18 07:19:15;;;;;;;6.30;3.80;;;;;;;21.96;100.00;98122.59;5032995;28;20229;-74
2023/08/18 07:21:42;;;;;;;8.55;3.65;;;;;;;21.95;100.00;98126.41;5032451;28;20202;-76
2023/08/18 07:24:08;;;;;;;7.07;4.40;;;;;;;22.10;100.00;98125.41;5033809;28;20206;-76
2023/08/18 07:26:34;;;;;;;6.05;3.88;;;;;;;22.42;100.00;98117.38;5032793;28;20213;-76
2023/08/18 07:29:01;;;;;;;6.25;3.80;;;;;;;22.27;100.00;98120.31;5032746;28;20226;-76
2023/08/18 07:31:27;;;;;;;6.63;3.70;;;;;;;22.42;100.00;98120.06;5032639;28;20693;-76
2023/08/18 07:33:54;;;;;;;6.20;3.53;;;;;;;22.40;100.00;98122.28;5035403;28;20688;-76
2023/08/18 07:36:20;;;;;;;3.72;3.42;;;;;;;22.42;100.00;98128.19;5036309;28;20216;-76
2023/08/18 07:38:46;;;;;;;4.75;3.28;;;;;;;22.47;100.00;98131.69;5036068;28;20226;-76
2023/08/18 07:41:13;;;;;;;4.68;2.88;;;;;;;22.58;100.00;98132.34;5036815;28;20236;-76
2023/08/18 07:43:39;;;;;;;3.67;2.55;;;;;;;22.81;100.00;98128.72;5036664;28;20596;-76
2023/08/18 07:46:05;;;;;;;5.85;2.90;;;;;;;22.98;100.00;98132.50;5036203;28;20693;-76
2023/08/18 07:48:32;;;;;;;4.90;2.75;;;;;;;23.00;100.00;98138.44;5019104;28;20226;-74
2023/08/18 07:50:58;;;;;;;3.00;2.40;;;;;;;23.13;100.00;98134.16;5036405;28;20260;-76
2023/08/18 07:53:26;;;;;;;4.90;2.80;;;;;;;23.17;98.87;98140.59;5036282;28;20206;-76
2023/08/18 07:55:52;;;;;;;3.80;2.35;;;;;;;23.31;97.13;98138.75;5036426;28;20299;-76
2023/08/18 07:58:19;;;;;;;4.35;2.60;;;;;;;23.22;100.00;98140.53;5036304;28;20214;-76
2023/08/18 08:00:47;;;;;;;3.63;2.47;;;;;;;23.23;100.00;98131.28;5036421;28;20209;-76
2023/08/18 08:03:14;;;;;;;3.35;2.35;;;;;;;23.26;100.00;98131.53;5037378;28;20263;-76
2023/08/18 08:05:40;;;;;;;5.57;2.67;;;;;;;23.30;97.61;98134.44;5036150;28;20210;-76
2023/08/18 08:08:07;;;;;;;3.08;2.42;;;;;;;23.29;98.41;98128.19;5036119;28;20228;-75
2023/08/18 08:10:33;;;;;;;3.58;2.80;;;;;;;23.27;98.42;98133.13;5036034;28;20304;-76
2023/08/18 08:13:00;;;;;;;3.08;2.50;;;;;;;23.37;98.60;98129.41;5036099;28;20213;-76
2023/08/18 08:15:26;;;;;;;4.78;2.67;;;;;;;23.49;99.43;98127.03;5035836;28;20673;-76
2023/08/18 08:17:52;;;;;;;4.60;2.42;;;;;;;23.85;96.83;98123.34;5036021;28;20210;-76
2023/08/18 08:20:19;;;;;;;3.22;2.60;;;;;;;23.78;98.69;98133.00;5036321;28;20229;-76
2023/08/18 08:22:47;;;;;;;2.60;2.40;;;;;;;24.09;95.79;98128.56;5035826;28;20655;-76
2023/08/18 08:25:13;;;;;;;3.15;2.50;;;;;;;24.27;94.57;98130.34;5036145;28;20284;-76
2023/08/18 08:27:41;;;;;;;3.85;2.63;;;;;;;24.23;96.50;98121.19;5035682;28;20210;-76
2023/08/18 08:30:09;;;;;;;4.43;2.40;;;;;;;24.11;95.97;98120.94;5036015;28;20232;-76
2023/08/18 08:32:35;;;;;;;4.13;2.72;;;;;;;24.30;93.30;98119.69;5035414;28;20591;-74
2023/08/18 08:35:02;;;;;;;4.15;2.50;;;;;;;24.56;91.64;98125.34;5035441;28;20569;-74
2023/08/18 08:37:28;;;;;;;4.85;2.53;;;;;;;24.44;91.59;98125.09;5035670;28;20238;-74
2023/08/18 08:39:55;;;;;;;6.07;2.50;;;;;;;24.46;91.27;98120.94;5035630;28;20234;-74
2023/08/18 08:42:23;;;;;;;4.85;2.25;;;;;;;24.69;88.71;98116.38;5035469;28;20206;-74
2023/08/18 08:44:49;;;;;;;4.22;2.35;;;;;;;24.71;90.95;98119.59;5034576;28;20212;-74
2023/08/18 08:47:16;;;;;;;3.30;2.40;;;;;;;24.91;88.15;98119.09;5035225;28;20209;-74
2023/08/18 08:49:44;;;;;;;3.80;2.35;;;;;;;24.92;88.54;98116.06;5017979;28;20237;-74
2023/08/18 08:52:13;;;;;;;3.17;2.50;;;;;;;25.18;86.45;98119.75;5035486;28;20230;-74
2023/08/18 08:54:48;;;;;;;5.90;2.38;;;;;;;24.97;87.35;98117.88;5035429;28;20279;-74
2023/08/18 08:57:17;;;;;;;3.35;2.10;;;;;;;25.13;87.15;98121.81;5035526;28;20193;-74
2023/08/18 08:59:44;;;;;;;3.35;2.08;;;;;;;24.95;83.55;98123.63;5035258;28;20222;-74
2023/08/18 09:02:10;;;;;;;3.58;2.38;;;;;;;25.15;84.00;98119.59;5035216;28;20202;-76
2023/08/18 09:04:37;;;;;;;3.53;2.40;;;;;;;25.31;85.61;98113.47;5034826;28;20687;-76
2023/08/18 09:07:03;;;;;;;3.50;2.22;;;;;;;25.66;78.34;98117.97;5034861;28;20673;-76
2023/08/18 09:09:30;;;;;;;5.05;2.03;;;;;;;25.75;78.31;98109.81;5034836;28;20685;-76
2023/08/18 09:12:05;;;;;;;2.88;2.03;;;;;;;25.77;79.25;98108.38;5034874;28;20322;-76
2023/08/18 09:14:33;;;;;;;3.03;2.22;;;;;;;25.77;78.51;98110.28;5034581;28;20550;-76
2023/08/18 09:17:00;;;;;;;5.95;2.30;;;;;;;25.77;78.85;98111.09;5035027;28;20202;-76
2023/08/18 09:19:27;;;;;;;2.75;1.75;;;;;;;25.81;80.55;98116.72;5034890;28;20233;-74
2023/08/18 09:21:56;;;;;;;4.85;1.88;;;;;;;25.99;77.35;98112.97;5034740;28;20202;-74
2023/08/18 09:24:23;;;;;;;2.90;1.88;;;;;;;26.28;74.43;98121.38;5036858;28;20206;-74
2023/08/18 09:26:49;;;;;;;2.97;2.08;;;;;;;26.34;77.60;98114.66;5034967;28;20216;-76
2023/08/18 09:29:16;;;;;;;4.20;2.25;;;;;;;26.43;77.15;98123.63;5035831;28;20230;-76
2023/08/18 09:31:45;;;;;;;7.72;2.17;;;;;;;26.68;75.61;98110.03;5035257;28;20566;-76
2023/08/18 09:34:23;;;;;;;3.55;2.30;;;;;;;27.09;71.54;98104.84;5034513;28;20202;-76
2023/08/18 09:36:55;;;;;;;4.88;2.33;;;;;;;27.03;72.97;98105.34;5034707;28;20256;-76
2023/08/18 09:39:24;;;;;;;4.30;2.22;;;;;;;27.11;77.38;98096.34;5034206;28;20743;-76
2023/08/18 09:41:52;;;;;;;3.05;2.05;;;;;;;27.31;69.71;98094.91;5034760;28;20565;-76
2023/08/18 09:44:20;;;;;;;3.53;2.10;;;;;;;27.56;69.22;98092.06;5034595;28;20214;-76
2023/08/18 09:47:06;;;;;;;2.30;1.95;;;;;;;27.70;67.92;98089.09;5034592;28;20208;-76
2023/08/18 09:49:40;;;;;;;3.58;2.00;;;;;;;27.50;68.95;98093.38;5034331;28;20275;-76
2023/08/18 09:52:08;;;;;;;2.25;1.85;;;;;;;27.50;66.79;98093.38;5034383;28;20217;-76
2023/08/18 09:54:59;;;;;;;6.25;1.75;;;;;;;27.78;65.27;98094.53;5034384;28;20206;-76
2023/08/18 09:57:31;;;;;;;4.07;2.00;;;;;;;27.98;64.94;98085.63;5034132;28;20212;-76
2023/08/18 09:59:59;;;;;;;3.83;1.77;;;;;;;28.10;64.06;98088.44;5034314;28;20226;-76
2023/08/18 10:02:36;;;;;;;2.78;2.00;;;;;;;28.17;61.75;98085.97;5034100;28;20198;-76
2023/08/18 10:05:03;;;;;;;3.28;1.83;;;;;;;28.22;59.73;98082.25;5033833;28;20297;-76
2023/08/18 10:07:31;;;;;;;2.15;1.88;;;;;;;28.29;61.81;98082.50;5034054;28;20217;-76
2023/08/18 10:09:58;;;;;;;2.25;1.80;;;;;;;28.66;58.50;98085.16;5033846;28;20226;-76
2023/08/18 10:12:24;;;;;;;4.47;2.08;;;;;;;28.51;59.66;98079.50;5033827;28;20225;-76
2023/08/18 10:14:52;;;;;;;4.68;2.08;;;;;;;28.59;55.42;98079.44;5033969;28;20208;-76
2023/08/18 10:17:24;;;;;;;2.03;1.70;;;;;;;28.63;57.72;98082.28;5016100;28;20210;-76
2023/08/18 10:19:55;;;;;;;3.92;1.92;;;;;;;28.55;54.61;98081.25;5033541;28;20716;-76
2023/08/18 10:22:27;;;;;;;2.47;1.80;;;;;;;28.47;55.66;98079.38;5033800;28;20201;-76
2023/08/18 10:24:54;;;;;;;2.85;1.88;;;;;;;28.78;55.29;98079.75;5033327;28;20214;-76
2023/08/18 10:27:27;;;;;;;1.67;1.58;;;;;;;28.80;54.13;98077.47;5033199;28;20673;-76
2023/08/18 10:29:57;;;;;;;2.17;1.77;;;;;;;29.08;55.01;98078.50;5034012;28;20225;-76
2023/08/18 10:32:24;;;;;;;2.47;1.73;;;;;;;29.06;51.92;98069.84;5033720;28;20257;-76
2023/08/18 10:34:51;;;;;;;5.50;1.95;;;;;;;29.12;53.42;98068.47;5033708;28;20209;-76
2023/08/18 10:37:22;;;;;;;2.33;1.85;;;;;;;29.22;53.34;98068.06;5034148;28;20206;-76
2023/08/18 10:39:51;;;;;;;3.38;1.95;;;;;;;29.18;54.74;98064.41;5033164;28;20717;-76
2023/08/18 10:42:18;;;;;;;3.95;1.92;;;;;;;28.98;53.41;98061.69;5033638;28;20293;-76
2023/08/18 10:45:03;;;;;;;1.92;1.63;;;;;;;29.11;52.42;98069.63;5033279;28;20669;-76
2023/08/18 10:47:34;;;;;;;2.65;2.00;;;;;;;29.20;51.78;98069.53;5033410;28;20202;-76
2023/08/18 10:50:05;;;;;;;3.30;1.77;;;;;;;29.40;49.42;98065.91;5033370;28;20537;-76
2023/08/18 10:52:32;;;;;;;2.60;1.60;;;;;;;29.52;50.93;98069.47;5033077;28;20684;-76
2023/08/18 10:54:59;;;;;;;3.08;1.88;;;;;;;29.36;51.25;98059.50;5033271;28;20206;-76
2023/08/18 10:57:27;;;;;;;3.35;1.60;;;;;;;29.63;49.59;98062.44;5033214;28;20293;-76
2023/08/18 10:59:53;;;;;;;3.17;1.95;;;;;;;29.76;48.06;98063.25;5033306;28;20229;-76
2023/08/18 11:02:19;;;;;;;2.25;2.00;;;;;;;29.69;46.34;98058.31;5033986;28;20555;-76
2023/08/18 11:04:46;;;;;;;2.85;1.70;;;;;;;29.57;45.28;98058.31;5034180;28;20201;-76
2023/08/18 11:07:12;;;;;;;2.83;1.63;;;;;;;29.71;44.84;98058.75;5033004;28;20665;-76
2023/08/18 11:09:39;;;;;;;2.22;1.70;;;;;;;29.85;43.96;98053.72;5037335;28;20221;-76
2023/08/18 11:12:05;;;;;;;3.13;1.90;;;;;;;29.80;43.84;98048.50;5037201;28;20226;-76
2023/08/18 11:14:32;;;;;;;2.42;1.65;;;;;;;29.85;44.07;98045.50;5037333;28;20540;-77
2023/08/18 11:16:59;;;;;;;1.80;1.60;;;;;;;29.81;43.48;98041.06;5037174;28;20202;-76
2023/08/18 11:19:25;;;;;;;3.30;1.60;;;;;;;29.83;42.88;98036.84;5037115;28;20226;-76
2023/08/18 11:21:52;;;;;;;2.70;1.95;;;;;;;29.85;41.77;98033.78;5036959;28;20204;-76
2023/08/18 11:24:18;;;;;;;2.63;1.77;;;;;;;29.44;41.87;98031.22;5036941;28;20216;-76
2023/08/18 11:26:46;;;;;;;3.35;1.83;;;;;;;29.73;45.10;98028.28;5036760;28;20296;-76
2023/08/18 11:29:13;;;;;;;5.18;1.85;;;;;;;29.79;42.97;98024.97;5036928;28;20280;-76